createdAt,value
2018-02-15T00:01:57.677Z,-0.10
2018-02-15T00:04:25.163Z,-0.10
2018-02-15T00:06:52.634Z,-0.10
2018-02-15T00:09:20.122Z,-0.10
2018-02-15T00:11:47.777Z,-0.20
2018-02-15T00:14:15.302Z,-0.20
2018-02-15T00:16:42.798Z,-0.10
2018-02-15T00:19:10.437Z,-0.10
2018-02-15T00:21:38.018Z,-0.10
2018-02-15T00:24:05.746Z,0.00
2018-02-15T00:26:33.213Z,0.00
2018-02-15T00:29:00.693Z,0.00
2018-02-15T00:31:29.186Z,0.00
2018-02-15T00:33:56.734Z,0.00
2018-02-15T00:36:24.212Z,0.10
2018-02-15T00:38:51.722Z,0.10
2018-02-15T00:41:19.193Z,0.10
2018-02-15T00:43:46.654Z,0.10
2018-02-15T00:46:14.320Z,0.10
2018-02-15T00:48:41.810Z,0.10
2018-02-15T00:51:09.295Z,0.10
2018-02-15T00:53:36.861Z,0.10
2018-02-15T00:56:04.557Z,0.20
2018-02-15T00:58:32.022Z,0.20
2018-02-15T01:00:59.705Z,0.20
2018-02-15T01:03:27.164Z,0.20
2018-02-15T01:05:54.663Z,0.20
2018-02-15T01:08:22.157Z,0.20
2018-02-15T01:10:49.627Z,0.10
2018-02-15T01:13:17.111Z,0.10
2018-02-15T01:15:44.830Z,0.10
2018-02-15T01:18:13.205Z,0.10
2018-02-15T01:20:40.978Z,0.20
2018-02-15T01:23:08.627Z,0.20
2018-02-15T01:25:36.099Z,0.20
2018-02-15T01:28:03.557Z,0.20
2018-02-15T01:30:31.083Z,0.10
2018-02-15T01:32:58.577Z,0.10
2018-02-15T01:35:26.361Z,0.10
2018-02-15T01:37:53.977Z,0.10
2018-02-15T01:40:21.546Z,0.20
2018-02-15T01:42:49.190Z,0.20
2018-02-15T01:45:16.656Z,0.20
2018-02-15T01:47:44.145Z,0.20
2018-02-15T01:50:11.597Z,0.20
2018-02-15T01:52:39.093Z,0.10
2018-02-15T01:55:06.574Z,0.00
2018-02-15T01:57:34.092Z,0.00
2018-02-15T02:00:01.685Z,0.10
2018-02-15T02:02:29.178Z,0.20
2018-02-15T02:04:56.642Z,0.10
2018-02-15T02:07:24.097Z,0.00
2018-02-15T02:09:51.603Z,0.10
2018-02-15T02:12:19.293Z,0.10
2018-02-15T02:14:46.851Z,0.10
2018-02-15T02:17:14.330Z,0.20
2018-02-15T02:19:41.847Z,0.20
2018-02-15T02:22:09.546Z,0.20
2018-02-15T02:24:37.310Z,0.20
2018-02-15T02:27:05.056Z,0.20
2018-02-15T02:29:32.745Z,0.20
2018-02-15T02:32:00.194Z,0.30
2018-02-15T02:34:27.659Z,0.30
2018-02-15T02:36:55.127Z,0.40
2018-02-15T02:39:22.679Z,0.40
2018-02-15T02:41:50.377Z,0.40
2018-02-15T02:44:17.845Z,0.50
2018-02-15T02:46:45.338Z,0.40
2018-02-15T02:49:12.982Z,0.40
2018-02-15T02:51:40.520Z,0.50
2018-02-15T02:54:07.978Z,0.60
2018-02-15T02:56:35.484Z,0.60
2018-02-15T02:59:02.937Z,0.60
2018-02-15T03:01:30.770Z,0.60
2018-02-15T03:03:58.366Z,0.70
2018-02-15T03:06:25.842Z,0.60
2018-02-15T03:08:53.375Z,0.60
2018-02-15T03:11:20.950Z,0.50
2018-02-15T03:13:49.171Z,0.50
2018-02-15T03:16:16.653Z,0.50
2018-02-15T03:18:44.123Z,0.60
2018-02-15T03:21:11.580Z,0.60
2018-02-15T03:23:39.235Z,0.60
2018-02-15T03:26:06.989Z,0.70
2018-02-15T03:28:34.555Z,0.80
2018-02-15T03:31:02.024Z,0.80
2018-02-15T03:33:29.706Z,0.80
2018-02-15T03:35:57.179Z,0.80
2018-02-15T03:38:24.690Z,0.90
2018-02-15T03:40:52.146Z,0.90
2018-02-15T03:43:19.620Z,1.00
2018-02-15T03:45:47.102Z,0.90
2018-02-15T03:48:14.546Z,0.90
2018-02-15T03:50:42.013Z,0.90
2018-02-15T03:53:09.490Z,0.90
2018-02-15T03:55:36.954Z,0.90
2018-02-15T03:58:04.421Z,0.90
2018-02-15T04:00:31.917Z,0.90
2018-02-15T04:03:00.167Z,0.90
2018-02-15T04:05:27.637Z,0.90
2018-02-15T04:07:55.274Z,0.90
2018-02-15T04:10:22.858Z,1.00
2018-02-15T04:12:50.314Z,1.10
2018-02-15T04:15:18.083Z,1.10
2018-02-15T04:17:45.533Z,1.10
2018-02-15T04:20:13.108Z,1.10
2018-02-15T04:22:41.321Z,1.20
2018-02-15T04:25:08.791Z,1.20
2018-02-15T04:27:36.282Z,1.20
2018-02-15T04:30:04.038Z,1.30
2018-02-15T04:32:31.801Z,1.40
2018-02-15T04:34:59.315Z,1.50
2018-02-15T04:37:26.776Z,1.50
2018-02-15T04:39:54.478Z,1.50
2018-02-15T04:42:22.642Z,1.50
2018-02-15T04:44:50.181Z,1.50
2018-02-15T04:47:17.774Z,1.50
2018-02-15T04:49:45.537Z,1.60
2018-02-15T04:52:13.169Z,1.60
2018-02-15T04:54:40.619Z,1.60
2018-02-15T04:57:08.088Z,1.50
2018-02-15T04:59:35.674Z,1.50
2018-02-15T05:02:03.150Z,1.60
2018-02-15T05:04:30.606Z,1.60
2018-02-15T05:06:58.071Z,1.60
2018-02-15T05:09:25.811Z,1.70
2018-02-15T05:11:53.482Z,1.70
2018-02-15T05:14:21.030Z,1.70
2018-02-15T05:16:48.795Z,1.70
2018-02-15T05:19:16.274Z,1.70
2018-02-15T05:21:44.020Z,1.70
2018-02-15T05:24:11.470Z,1.70
2018-02-15T05:26:39.225Z,1.70
2018-02-15T05:29:06.878Z,1.70
2018-02-15T05:31:34.451Z,1.80
2018-02-15T05:34:02.094Z,1.80
2018-02-15T05:36:29.607Z,1.80
2018-02-15T05:38:57.131Z,1.80
2018-02-15T05:41:24.588Z,1.80
2018-02-15T05:43:52.234Z,1.90
2018-02-15T05:46:19.817Z,1.80
2018-02-15T05:48:47.288Z,1.80
2018-02-15T05:51:15.034Z,1.80
2018-02-15T05:53:42.796Z,1.80
2018-02-15T05:56:10.507Z,1.80
2018-02-15T05:58:38.168Z,1.90
2018-02-15T06:01:05.634Z,1.90
2018-02-15T06:03:33.226Z,2.00
2018-02-15T06:06:00.677Z,2.00
2018-02-15T06:08:28.137Z,2.00
2018-02-15T06:10:55.593Z,2.10
2018-02-15T06:13:23.071Z,2.10
2018-02-15T06:15:50.592Z,2.20
2018-02-15T06:18:18.127Z,2.20
2018-02-15T06:20:45.593Z,2.20
2018-02-15T06:23:13.050Z,2.20
2018-02-15T06:25:40.510Z,2.20
2018-02-15T06:28:08.022Z,2.20
2018-02-15T06:30:35.489Z,2.20
2018-02-15T06:33:02.955Z,2.20
2018-02-15T06:35:30.468Z,2.20
2018-02-15T06:37:58.041Z,2.30
2018-02-15T06:40:25.681Z,2.30
2018-02-15T06:42:53.450Z,2.30
2018-02-15T06:45:20.907Z,2.30
2018-02-15T06:47:48.365Z,2.30
2018-02-15T06:50:15.846Z,2.40
2018-02-15T06:52:43.322Z,2.50
2018-02-15T06:55:10.779Z,2.50
2018-02-15T06:57:38.576Z,2.50
2018-02-15T07:00:06.037Z,2.60
2018-02-15T07:02:33.717Z,2.60
2018-02-15T07:05:01.202Z,2.60
2018-02-15T07:07:28.849Z,2.60
2018-02-15T07:09:56.398Z,2.60
2018-02-15T07:12:24.032Z,2.60
2018-02-15T07:14:51.498Z,2.70
2018-02-15T07:17:18.954Z,2.70
2018-02-15T07:19:46.695Z,2.70
2018-02-15T07:22:14.284Z,2.70
2018-02-15T07:24:41.958Z,2.70
2018-02-15T07:27:09.507Z,2.60
2018-02-15T07:29:37.182Z,2.50
2018-02-15T07:32:04.734Z,2.50
2018-02-15T07:34:32.225Z,2.50
2018-02-15T07:36:59.955Z,2.60
2018-02-15T07:39:27.727Z,2.50
2018-02-15T07:41:55.174Z,2.50
2018-02-15T07:44:22.646Z,2.50
2018-02-15T07:46:50.097Z,2.40
2018-02-15T07:49:17.554Z,2.40
2018-02-15T07:51:45.216Z,2.40
2018-02-15T07:54:12.681Z,2.40
2018-02-15T07:56:40.181Z,2.50
2018-02-15T07:59:07.682Z,2.50
2018-02-15T08:01:35.142Z,2.60
2018-02-15T08:04:02.645Z,2.60
2018-02-15T08:06:30.057Z,2.60
2018-02-15T08:08:57.826Z,2.60
2018-02-15T08:11:25.451Z,2.70
2018-02-15T08:13:52.950Z,2.80
2018-02-15T08:16:20.424Z,2.80
2018-02-15T08:18:47.944Z,2.80
2018-02-15T08:21:15.571Z,2.90
2018-02-15T08:23:43.179Z,3.00
2018-02-15T08:26:10.633Z,3.10
2018-02-15T08:28:38.103Z,3.10
2018-02-15T08:31:05.850Z,3.00
2018-02-15T08:33:34.843Z,3.10
2018-02-15T08:36:02.319Z,3.10
2018-02-15T08:38:29.927Z,3.20
2018-02-15T08:40:57.440Z,3.20
2018-02-15T08:43:24.980Z,3.20
2018-02-15T08:45:52.744Z,3.20
2018-02-15T08:48:20.402Z,3.30
2018-02-15T08:50:47.872Z,3.30
2018-02-15T08:53:15.417Z,3.30
2018-02-15T08:55:43.075Z,3.40
2018-02-15T08:58:10.588Z,3.40
2018-02-15T09:00:38.110Z,3.50
2018-02-15T09:03:05.549Z,3.50
2018-02-15T09:05:33.014Z,3.60
2018-02-15T09:08:00.774Z,3.60
2018-02-15T09:10:28.544Z,3.60
2018-02-15T09:12:56.302Z,3.60
2018-02-15T09:15:23.906Z,3.60
2018-02-15T09:17:51.510Z,3.70
2018-02-15T09:20:18.998Z,3.70
2018-02-15T09:22:46.649Z,3.80
2018-02-15T09:31:02.895Z,3.90
2018-02-15T09:33:30.368Z,4.00
2018-02-15T09:35:57.842Z,4.00
2018-02-15T09:38:25.302Z,4.10
2018-02-15T09:40:52.776Z,4.10
2018-02-15T09:43:20.243Z,4.20
2018-02-15T09:45:47.761Z,4.20
2018-02-15T09:48:15.201Z,4.20
2018-02-15T09:50:42.666Z,4.30
2018-02-15T09:53:10.127Z,4.30
2018-02-15T09:55:37.606Z,4.30
2018-02-15T09:58:05.080Z,4.30
2018-02-15T10:00:33.345Z,4.40
2018-02-15T10:03:00.808Z,4.30
2018-02-15T10:05:28.274Z,4.40
2018-02-15T10:07:56.506Z,4.40
2018-02-15T10:10:23.994Z,4.50
2018-02-15T10:12:51.453Z,4.40
2018-02-15T10:15:18.916Z,4.50
2018-02-15T10:17:47.153Z,4.50
2018-02-15T10:20:14.611Z,4.40
2018-02-15T10:22:42.112Z,4.50
2018-02-15T10:25:10.344Z,4.40
2018-02-15T10:27:37.828Z,4.30
2018-02-15T10:30:05.284Z,4.40
2018-02-15T10:32:32.787Z,4.50
2018-02-15T10:35:00.347Z,4.40
2018-02-15T10:37:27.811Z,4.40
2018-02-15T10:39:55.276Z,4.40
2018-02-15T10:42:22.743Z,4.50
2018-02-15T10:44:50.203Z,4.60
2018-02-15T10:47:17.684Z,4.60
2018-02-15T10:49:45.163Z,4.60
2018-02-15T10:52:12.623Z,4.70
2018-02-15T10:54:40.849Z,4.70
2018-02-15T10:57:08.316Z,4.60
2018-02-15T10:59:35.839Z,4.60
2018-02-15T11:02:08.938Z,4.70
2018-02-15T11:04:36.402Z,4.70
2018-02-15T11:07:03.921Z,4.80
2018-02-15T11:09:31.406Z,4.70
2018-02-15T11:11:58.866Z,4.70
2018-02-15T11:14:26.379Z,4.60
2018-02-15T11:16:54.611Z,4.60
2018-02-15T11:19:22.067Z,4.60
2018-02-15T11:21:49.551Z,4.70
2018-02-15T11:24:17.016Z,4.70
2018-02-15T11:26:44.494Z,4.70
2018-02-15T11:29:11.991Z,4.80
2018-02-15T11:31:39.460Z,4.90
2018-02-15T11:34:06.918Z,4.90
2018-02-15T11:36:34.378Z,5.00
2018-02-15T11:39:01.859Z,4.80
2018-02-15T11:41:30.089Z,4.70
2018-02-15T11:43:57.563Z,4.70
2018-02-15T11:46:26.548Z,4.90
2018-02-15T11:48:54.010Z,4.80
2018-02-15T11:51:21.470Z,4.90
2018-02-15T11:53:48.951Z,4.90
2018-02-15T11:56:16.420Z,4.90
2018-02-15T11:58:43.874Z,4.80
2018-02-15T12:01:11.372Z,4.80
2018-02-15T12:03:38.839Z,4.80
2018-02-15T12:06:06.292Z,4.70
2018-02-15T12:08:33.762Z,4.50
2018-02-15T12:11:01.225Z,4.50
2018-02-15T12:13:28.686Z,4.30
2018-02-15T12:15:56.147Z,4.30
2018-02-15T12:18:23.610Z,4.20
2018-02-15T12:20:51.076Z,4.20
2018-02-15T12:23:19.306Z,4.30
2018-02-15T12:25:46.782Z,4.30
2018-02-15T12:28:14.251Z,4.30
2018-02-15T12:30:41.714Z,4.30
2018-02-15T12:33:09.182Z,4.40
2018-02-15T12:35:36.654Z,4.40
2018-02-15T12:38:04.134Z,4.40
2018-02-15T12:40:31.619Z,4.50
2018-02-15T12:42:59.083Z,4.60
2018-02-15T12:45:26.550Z,4.70
2018-02-15T12:47:54.012Z,4.80
2018-02-15T12:50:21.470Z,4.80
2018-02-15T12:52:48.937Z,4.90
2018-02-15T12:55:17.183Z,4.70
2018-02-15T12:57:44.658Z,4.70
2018-02-15T13:00:12.138Z,4.60
2018-02-15T13:02:39.600Z,4.60
2018-02-15T13:05:07.084Z,4.70
2018-02-15T13:07:34.548Z,4.70
2018-02-15T13:10:02.027Z,4.70
2018-02-15T13:12:41.327Z,4.70
2018-02-15T13:15:20.753Z,4.70
2018-02-15T13:17:48.207Z,4.70
2018-02-15T13:20:19.378Z,4.80
2018-02-15T13:22:48.467Z,4.80
2018-02-15T13:25:15.947Z,4.80
2018-02-15T13:27:55.090Z,4.80
2018-02-15T13:30:22.562Z,4.80
2018-02-15T13:32:50.791Z,4.70
2018-02-15T13:35:18.280Z,4.70
2018-02-15T13:37:45.736Z,4.80
2018-02-15T13:40:13.195Z,4.80
2018-02-15T13:42:40.679Z,4.80
2018-02-15T13:45:08.166Z,4.80
2018-02-15T13:47:35.644Z,4.70
2018-02-15T13:50:03.104Z,4.70
2018-02-15T13:52:30.579Z,4.60
2018-02-15T13:54:58.085Z,4.70
2018-02-15T13:57:25.546Z,4.50
2018-02-15T13:59:53.016Z,4.60
2018-02-15T14:02:20.482Z,4.60
2018-02-15T14:04:47.971Z,4.50
2018-02-15T14:07:15.477Z,4.50
2018-02-15T14:09:42.983Z,4.50
2018-02-15T14:12:11.311Z,4.50
2018-02-15T14:14:39.760Z,4.60
2018-02-15T14:17:07.210Z,4.70
2018-02-15T14:19:34.680Z,4.90
2018-02-15T14:22:02.160Z,4.90
2018-02-15T14:24:29.695Z,5.00
2018-02-15T14:26:57.234Z,5.00
2018-02-15T14:29:24.738Z,4.90
2018-02-15T14:31:52.250Z,4.80
2018-02-15T14:34:19.710Z,4.70
2018-02-15T14:36:47.178Z,4.70
2018-02-15T14:39:14.630Z,4.80
2018-02-15T14:41:42.096Z,4.80
2018-02-15T14:44:09.646Z,4.80
2018-02-15T14:46:37.900Z,4.60
2018-02-15T14:49:05.419Z,4.60
2018-02-15T14:51:32.942Z,4.60
2018-02-15T14:54:01.209Z,4.60
2018-02-15T14:56:28.676Z,4.60
2018-02-15T14:58:56.138Z,4.60
2018-02-15T15:01:23.619Z,4.60
2018-02-15T15:03:51.082Z,4.60
2018-02-15T15:06:18.563Z,4.60
2018-02-15T15:08:46.115Z,4.50
2018-02-15T15:11:13.609Z,4.50
2018-02-15T15:13:41.140Z,4.50
2018-02-15T15:16:08.601Z,4.50
2018-02-15T15:18:36.072Z,4.50
2018-02-15T15:21:03.608Z,4.50
2018-02-15T15:23:31.074Z,4.40
2018-02-15T15:25:58.538Z,4.50
2018-02-15T15:28:26.011Z,4.50
2018-02-15T15:30:54.258Z,4.50
2018-02-15T15:33:21.748Z,4.50
2018-02-15T15:35:49.235Z,4.40
2018-02-15T15:38:16.726Z,4.40
2018-02-15T15:40:44.973Z,4.40
2018-02-15T15:43:12.479Z,4.40
2018-02-15T15:45:39.962Z,4.50
2018-02-15T15:48:07.560Z,4.50
2018-02-15T15:50:35.039Z,4.50
2018-02-15T15:53:02.510Z,4.50
2018-02-15T15:55:29.967Z,4.50
2018-02-15T15:57:57.457Z,4.40
2018-02-15T16:00:36.249Z,4.50
2018-02-15T16:03:06.313Z,4.50
2018-02-15T16:05:35.803Z,4.60
2018-02-15T16:08:05.031Z,4.60
2018-02-15T16:10:34.658Z,4.60
2018-02-15T16:13:03.459Z,4.60
2018-02-15T16:15:33.183Z,4.60
2018-02-15T16:18:03.775Z,4.60
2018-02-15T16:20:33.694Z,4.60
2018-02-15T16:23:03.163Z,4.60
2018-02-15T16:25:31.777Z,4.50
2018-02-15T16:28:00.712Z,4.60
2018-02-15T16:30:29.792Z,4.60
2018-02-15T16:32:58.310Z,4.50
2018-02-15T16:35:27.669Z,4.60
2018-02-15T16:37:55.823Z,4.60
2018-02-15T16:40:24.304Z,4.60
2018-02-15T16:42:52.303Z,4.60
2018-02-15T16:45:20.448Z,4.60
2018-02-15T16:47:48.154Z,4.60
2018-02-15T16:50:16.727Z,4.60
2018-02-15T16:52:44.577Z,4.60
2018-02-15T16:55:12.426Z,4.60
2018-02-15T16:57:40.422Z,4.60
2018-02-15T17:00:08.135Z,4.70
2018-02-15T17:02:36.300Z,4.60
2018-02-15T17:05:04.399Z,4.70
2018-02-15T17:07:33.502Z,4.70
2018-02-15T17:10:03.496Z,4.70
2018-02-15T17:12:31.747Z,4.70
2018-02-15T17:14:59.883Z,4.70
2018-02-15T17:17:27.699Z,4.70
2018-02-15T17:19:55.838Z,4.60
2018-02-15T17:22:24.364Z,4.60
2018-02-15T17:24:53.096Z,4.50
2018-02-15T17:27:20.829Z,4.60
2018-02-15T17:29:48.676Z,4.60
2018-02-15T17:32:18.134Z,4.60
2018-02-15T17:34:45.990Z,4.70
2018-02-15T17:37:14.046Z,4.60
2018-02-15T17:39:41.888Z,4.60
2018-02-15T17:42:09.987Z,4.60
2018-02-15T17:44:39.446Z,4.60
2018-02-15T17:47:07.946Z,4.60
2018-02-15T17:49:35.975Z,4.50
2018-02-15T17:52:06.881Z,4.60
2018-02-15T17:54:34.864Z,4.60
2018-02-15T17:57:03.713Z,4.50
2018-02-15T17:59:32.618Z,4.50
2018-02-15T18:02:01.877Z,4.50
2018-02-15T18:04:30.612Z,4.50
2018-02-15T18:07:00.237Z,4.50
2018-02-15T18:09:28.755Z,4.60
2018-02-15T18:11:59.476Z,4.70
2018-02-15T18:14:29.725Z,4.60
2018-02-15T18:16:58.089Z,4.60
2018-02-15T18:19:26.932Z,4.70
2018-02-15T18:21:54.929Z,4.60
2018-02-15T18:24:23.573Z,4.70
2018-02-15T18:26:51.307Z,4.70
2018-02-15T18:29:19.061Z,4.70
2018-02-15T18:31:46.879Z,4.70
2018-02-15T18:34:14.784Z,4.70
2018-02-15T18:36:43.652Z,4.60
2018-02-15T18:39:12.389Z,4.50
2018-02-15T18:41:40.560Z,4.50
2018-02-15T18:44:08.381Z,4.50
2018-02-15T18:46:36.249Z,4.60
2018-02-15T18:49:04.562Z,4.60
2018-02-15T18:51:32.472Z,4.70
2018-02-15T18:54:00.244Z,4.70
2018-02-15T18:56:27.973Z,4.70
2018-02-15T18:58:56.388Z,4.70
2018-02-15T19:01:24.153Z,4.70
2018-02-15T19:03:51.901Z,4.80
2018-02-15T19:06:20.460Z,4.80
2018-02-15T19:08:48.189Z,4.80
2018-02-15T19:11:15.812Z,4.80
2018-02-15T19:13:45.020Z,4.70
2018-02-15T19:16:12.836Z,4.60
2018-02-15T19:18:42.045Z,4.60
2018-02-15T19:21:10.101Z,4.60
2018-02-15T19:23:38.387Z,4.70
2018-02-15T19:26:07.691Z,4.80
2018-02-15T19:28:35.374Z,4.80
2018-02-15T19:31:05.011Z,4.80
2018-02-15T19:33:33.778Z,4.80
2018-02-15T19:36:02.372Z,4.80
2018-02-15T19:38:30.635Z,4.80
2018-02-15T19:41:00.581Z,4.80
2018-02-15T19:43:29.436Z,4.70
2018-02-15T19:45:57.573Z,4.60
2018-02-15T19:48:26.127Z,4.50
2018-02-15T19:50:56.830Z,4.50
2018-02-15T19:53:24.917Z,4.60
2018-02-15T19:55:55.309Z,4.70
2018-02-15T19:58:29.689Z,4.70
2018-02-15T20:00:58.790Z,4.70
2018-02-15T20:03:28.766Z,4.70
2018-02-15T20:05:57.662Z,4.70
2018-02-15T20:08:26.535Z,4.80
2018-02-15T20:10:56.071Z,4.80
2018-02-15T20:13:24.756Z,4.90
2018-02-15T20:15:52.979Z,4.80
2018-02-15T20:18:20.696Z,4.80
2018-02-15T20:20:50.026Z,4.90
2018-02-15T20:23:18.192Z,4.80
2018-02-15T20:25:53.294Z,4.80
2018-02-15T20:28:27.964Z,4.80
2018-02-15T20:30:57.493Z,4.80
2018-02-15T20:33:26.903Z,4.90
2018-02-15T20:35:55.794Z,4.80
2018-02-15T20:38:29.641Z,4.80
2018-02-15T20:40:58.252Z,4.80
2018-02-15T20:43:27.669Z,4.80
2018-02-15T20:45:56.287Z,4.80
2018-02-15T20:48:25.922Z,4.80
2018-02-15T20:51:01.202Z,4.80
2018-02-15T20:53:34.795Z,4.80
2018-02-15T20:56:05.558Z,4.80
2018-02-15T20:58:34.235Z,4.80
2018-02-15T21:01:02.768Z,4.90
2018-02-15T21:03:31.781Z,4.80
2018-02-15T21:06:00.240Z,4.80
2018-02-15T21:08:28.491Z,4.70
2018-02-15T21:10:57.699Z,4.60
2018-02-15T21:13:27.498Z,4.60
2018-02-15T21:15:56.572Z,4.60
2018-02-15T21:18:25.662Z,4.70
2018-02-15T21:20:54.219Z,4.70
2018-02-15T21:23:22.745Z,4.70
2018-02-15T21:25:51.923Z,4.80
2018-02-15T21:28:19.644Z,4.80
2018-02-15T21:30:47.846Z,4.80
2018-02-15T21:33:16.679Z,4.80
2018-02-15T21:35:44.792Z,4.80
2018-02-15T21:38:13.527Z,4.80
2018-02-15T21:40:41.586Z,4.80
2018-02-15T21:43:09.516Z,4.70
2018-02-15T21:45:37.091Z,4.80
2018-02-15T21:48:05.015Z,4.70
2018-02-15T21:50:34.116Z,4.70
2018-02-15T21:53:02.996Z,4.70
2018-02-15T21:55:31.780Z,4.70
2018-02-15T21:58:00.683Z,4.80
2018-02-15T22:00:28.292Z,4.80
2018-02-15T22:02:55.779Z,4.80
2018-02-15T22:05:23.236Z,4.80
2018-02-15T22:07:50.719Z,4.70
2018-02-15T22:10:18.179Z,4.60
2018-02-15T22:12:45.650Z,4.50
2018-02-15T22:15:13.124Z,4.50
2018-02-15T22:17:40.603Z,4.50
2018-02-15T22:20:08.059Z,4.60
2018-02-15T22:22:35.736Z,4.60
2018-02-15T22:25:03.198Z,4.60
2018-02-15T22:27:30.654Z,4.60
2018-02-15T22:29:58.122Z,4.50
2018-02-15T22:32:25.581Z,4.40
2018-02-15T22:34:53.058Z,4.30
2018-02-15T22:37:20.530Z,4.30
2018-02-15T22:39:48.018Z,4.20
2018-02-15T22:42:15.481Z,4.20
2018-02-15T22:44:42.935Z,4.30
2018-02-15T22:47:10.400Z,4.20
2018-02-15T22:49:37.878Z,4.20
2018-02-15T22:52:06.124Z,4.10
2018-02-15T22:54:33.600Z,4.10
2018-02-15T22:57:01.063Z,4.10
2018-02-15T22:59:28.551Z,4.20
2018-02-15T23:01:56.020Z,4.30
2018-02-15T23:04:23.478Z,4.40
2018-02-15T23:06:50.955Z,4.40
2018-02-15T23:09:18.427Z,4.40
2018-02-15T23:11:45.900Z,4.40
2018-02-15T23:14:14.170Z,4.50
2018-02-15T23:16:41.642Z,4.50
2018-02-15T23:19:09.107Z,4.50
2018-02-15T23:21:36.584Z,4.50
2018-02-15T23:24:04.047Z,4.40
2018-02-15T23:26:31.532Z,4.30
2018-02-15T23:28:58.988Z,4.20
2018-02-15T23:31:26.454Z,4.10
2018-02-15T23:33:53.914Z,4.00
2018-02-15T23:36:21.379Z,4.00
2018-02-15T23:38:48.841Z,4.20
2018-02-15T23:41:17.083Z,4.30
2018-02-15T23:43:44.558Z,4.30
2018-02-15T23:46:12.024Z,4.40
2018-02-15T23:48:39.479Z,4.40
2018-02-15T23:51:07.026Z,4.40
2018-02-15T23:53:34.475Z,4.40
2018-02-15T23:56:02.035Z,4.30
2018-02-15T23:58:29.528Z,4.30
